X  Fermer Données météorologiques d'aviation de Metar     ESNL Lycksele
Température
9°C Température
8°C Point de rosée
94% Humidité



Vitesse
8 M/S
17 MPH
27 KM/H
15 KTS



130°
SE
Conditions actuelles

Légère  Pluie Légère Pluie
Pression 990.92 (hPa) - 29.26 (inHg)
Visibilité 5 (mile) - 8 (km)
Aéroport
Code de l'aéroport ESNL

Emplacement: Lycksele
Distance: 35 (km)

Metar:
ESNL 062050Z AUTO 13015KT 110V170 8000 -RA FEW006/// SCT008/// BKN012/// 09/08 Q0991 REDZ

Temps: 2020-06-06 22:50 CEST